Time;durP1;ratioP1;P1;durP2;ratioP2;P2;SDS_P1;SDS_P2;PMS_P1;PMS_P2;Temp;Humidity;BMP_temperature;BMP_pressure;BME280_temperature;BME280_humidity;BME280_pressure;Samples;Min_cycle;Max_cycle;Signal;HPM_P1;HPM_P2
2022/08/24 00:02:23;;;;;;;28.13;25.73;;;;;;;20.93;80.21;101631.09;4987698;28;20329;-74
2022/08/24 00:04:49;;;;;;;28.20;25.85;;;;;;;20.83;80.97;101627.03;4983424;28;20034;-75
2022/08/24 00:07:15;;;;;;;28.45;26.13;;;;;;;20.78;81.26;101632.00;4995281;28;20458;-74
2022/08/24 00:09:41;;;;;;;28.35;25.85;;;;;;;20.90;80.35;101627.97;4982575;28;20038;-74
2022/08/24 00:12:08;;;;;;;29.13;26.42;;;;;;;20.85;81.09;101638.22;4988361;28;20049;-74
2022/08/24 00:14:34;;;;;;;28.25;25.60;;;;;;;20.77;80.90;101635.63;4982633;28;20034;-75
2022/08/24 00:17:00;;;;;;;28.05;25.55;;;;;;;20.71;81.57;101637.16;4980731;28;20031;-74
2022/08/24 00:19:27;;;;;;;28.48;26.08;;;;;;;20.71;81.56;101641.59;4985714;28;20036;-74
2022/08/24 00:21:52;;;;;;;27.48;24.98;;;;;;;20.77;81.51;101651.47;4993853;28;20056;-74
2022/08/24 00:24:18;;;;;;;28.45;26.08;;;;;;;20.62;82.01;101644.25;4977598;28;20521;-74
2022/08/24 00:26:45;;;;;;;29.08;26.48;;;;;;;20.56;81.77;101644.94;4977649;28;20033;-75
2022/08/24 00:29:12;;;;;;;28.75;26.25;;;;;;;20.61;82.13;101647.88;4988181;28;20045;-74
2022/08/24 00:31:38;;;;;;;29.95;27.45;;;;;;;20.59;81.91;101644.63;4977295;28;20069;-74
2022/08/24 00:34:04;;;;;;;29.80;27.40;;;;;;;20.45;82.53;101652.34;4979166;28;20030;-75
2022/08/24 00:36:29;;;;;;;28.95;26.45;;;;;;;20.64;82.02;101652.84;4971285;28;20118;-74
2022/08/24 00:38:55;;;;;;;29.80;27.23;;;;;;;20.65;81.74;101649.19;4984120;28;20044;-74
2022/08/24 00:41:21;;;;;;;28.60;26.25;;;;;;;20.61;81.58;101653.16;4979719;28;20393;-74
2022/08/24 00:43:57;;;;;;;29.92;27.38;;;;;;;20.48;82.67;101652.88;4980948;28;20046;-74
2022/08/24 00:46:27;;;;;;;28.95;26.48;;;;;;;20.42;82.85;101650.91;4986826;28;20031;-74
2022/08/24 00:49:03;;;;;;;30.13;27.50;;;;;;;20.42;83.26;101653.53;4976495;28;20074;-74
2022/08/24 00:51:38;;;;;;;30.33;27.52;;;;;;;20.36;83.53;101648.94;4987427;28;20393;-74
2022/08/24 00:54:12;;;;;;;31.30;28.50;;;;;;;20.34;83.04;101648.28;4980259;28;20112;-74
2022/08/24 00:56:44;;;;;;;30.65;28.15;;;;;;;20.46;83.77;101657.47;4983006;28;20019;-74
2022/08/24 00:59:13;;;;;;;30.67;27.83;;;;;;;20.38;83.19;101652.22;4986583;28;20374;-75
2022/08/24 01:01:40;;;;;;;30.83;28.15;;;;;;;20.48;83.38;101658.16;4988485;28;20332;-75
2022/08/24 01:04:09;;;;;;;30.10;27.48;;;;;;;20.50;82.86;101661.44;4975724;28;20034;-75
2022/08/24 01:06:34;;;;;;;31.15;28.25;;;;;;;20.48;83.56;101654.69;4991269;28;20034;-75
2022/08/24 01:09:01;;;;;;;32.22;29.52;;;;;;;20.34;84.00;101658.81;5007782;28;20068;-75
2022/08/24 01:11:29;;;;;;;32.45;29.65;;;;;;;20.46;83.78;101652.22;5005435;28;20048;-74
2022/08/24 01:13:55;;;;;;;31.75;29.05;;;;;;;20.45;83.69;101647.91;4988019;28;20492;-74
2022/08/24 01:19:15;;;;;;;32.63;29.88;;;;;;;20.41;84.15;101657.13;5005585;28;20459;-74
2022/08/24 01:22:07;;;;;;;32.08;29.27;;;;;;;20.35;84.15;101653.38;4994206;28;20038;-74
2022/08/24 01:24:35;;;;;;;32.63;29.83;;;;;;;20.31;84.19;101646.00;4900838;29;20044;-74
2022/08/24 01:27:01;;;;;;;31.30;28.65;;;;;;;20.43;83.46;101653.34;4904202;29;20036;-74
2022/08/24 01:29:30;;;;;;;30.23;27.63;;;;;;;20.42;83.25;101653.53;4901024;29;20524;-75
2022/08/24 01:31:57;;;;;;;30.60;28.08;;;;;;;20.49;82.58;101654.53;4908697;29;20032;-75
2022/08/24 01:34:23;;;;;;;29.80;27.30;;;;;;;20.43;82.85;101644.63;4907193;29;20039;-75
2022/08/24 01:36:54;;;;;;;29.95;27.35;;;;;;;20.27;83.09;101645.50;4902102;29;20132;-75
2022/08/24 01:39:24;;;;;;;31.65;29.02;;;;;;;20.04;83.74;101655.91;4892097;29;20102;-75
2022/08/24 01:41:50;;;;;;;31.67;28.98;;;;;;;20.08;83.33;101641.44;4903959;29;20560;-74
2022/08/24 01:44:19;;;;;;;31.60;29.00;;;;;;;20.14;82.89;101643.38;4899933;29;20096;-74
2022/08/24 01:46:47;;;;;;;33.15;30.45;;;;;;;20.03;83.95;101642.91;4896901;29;20031;-75
2022/08/24 01:49:12;;;;;;;;;;;;;;;20.40;81.48;101651.03;4905468;29;20127;-74
2022/08/24 01:51:38;;;;;;;31.95;29.33;;;;;;;20.18;82.86;101635.97;4900321;29;20030;-74
2022/08/24 01:54:05;;;;;;;31.92;29.33;;;;;;;20.04;83.58;101645.38;4908331;29;20040;-74
2022/08/24 01:56:31;;;;;;;32.67;29.90;;;;;;;19.85;83.66;101645.75;4901034;29;20079;-74
2022/08/24 01:58:57;;;;;;;33.45;30.73;;;;;;;19.87;83.79;101641.13;4905716;29;20566;-74
2022/08/24 02:01:24;;;;;;;32.05;29.45;;;;;;;19.83;83.99;101647.69;4942098;28;20176;-74
2022/08/24 02:03:49;;;;;;;33.70;30.98;;;;;;;19.80;83.85;101637.50;5003107;28;20053;-74
2022/08/24 02:06:17;;;;;;;31.95;29.27;;;;;;;19.78;84.04;101639.47;4999385;28;20031;-75
2022/08/24 02:08:43;;;;;;;32.50;29.75;;;;;;;19.73;84.09;101642.63;4999588;28;20678;-74
2022/08/24 02:11:09;;;;;;;32.88;30.15;;;;;;;19.68;84.59;101638.84;5000798;28;20034;-76
2022/08/24 02:13:37;;;;;;;33.22;30.48;;;;;;;19.67;84.57;101642.44;5000875;28;20055;-74
2022/08/24 02:16:04;;;;;;;31.77;28.98;;;;;;;19.68;84.19;101633.56;5003085;28;20103;-74
2022/08/24 02:18:30;;;;;;;32.13;29.50;;;;;;;19.72;84.24;101640.13;4994817;28;20037;-75
2022/08/24 02:20:56;;;;;;;31.75;29.05;;;;;;;19.62;84.41;101640.31;5002939;28;20019;-75
2022/08/24 02:23:22;;;;;;;32.88;29.92;;;;;;;19.57;84.16;101638.16;5004015;28;20109;-74
2022/08/24 02:25:47;;;;;;;33.15;30.30;;;;;;;19.45;84.74;101652.63;4982541;28;20056;-75
2022/08/24 02:28:13;;;;;;;31.77;29.27;;;;;;;19.39;84.94;101655.91;5006808;28;20492;-74
2022/08/24 02:30:39;;;;;;;32.33;29.60;;;;;;;19.43;84.90;101662.47;4986228;28;20648;-74
2022/08/24 02:33:05;;;;;;;33.80;30.95;;;;;;;19.46;84.96;101667.41;4997984;28;20034;-74
2022/08/24 02:35:31;;;;;;;32.72;30.02;;;;;;;19.40;85.43;101662.81;4987677;28;20381;-75
2022/08/24 02:37:57;;;;;;;32.38;29.58;;;;;;;19.47;85.05;101662.97;5007405;28;20029;-75
2022/08/24 02:40:23;;;;;;;33.72;30.92;;;;;;;19.47;85.07;101662.97;5002007;28;20053;-75
2022/08/24 02:42:48;;;;;;;34.08;31.35;;;;;;;19.50;84.68;101658.22;5003916;28;20034;-75
2022/08/24 02:45:14;;;;;;;37.10;33.95;;;;;;;19.41;85.89;101653.91;4973872;28;20025;-75
2022/08/24 02:47:40;;;;;;;36.40;33.40;;;;;;;19.46;85.72;101654.25;5007207;28;20037;-75
2022/08/24 02:50:08;;;;;;;36.00;32.83;;;;;;;19.39;85.95;101650.63;5000179;28;20466;-74
2022/08/24 02:52:36;;;;;;;35.40;32.35;;;;;;;19.50;85.25;101657.41;4996357;28;20038;-74
2022/08/24 02:55:01;;;;;;;35.42;32.42;;;;;;;19.47;85.44;101648.00;5002412;28;20022;-75
2022/08/24 02:57:27;;;;;;;35.53;32.42;;;;;;;19.38;85.76;101648.97;5012247;28;20038;-75
2022/08/24 02:59:52;;;;;;;35.65;32.65;;;;;;;19.37;85.25;101647.31;4999821;28;20050;-75
2022/08/24 03:02:17;;;;;;;35.67;32.78;;;;;;;19.48;84.88;101649.63;5005582;28;20046;-75
2022/08/24 03:04:43;;;;;;;33.92;30.95;;;;;;;19.53;84.83;101654.41;4997908;28;20025;-75
2022/08/24 03:07:09;;;;;;;34.28;31.50;;;;;;;19.51;84.78;101654.59;5009706;28;20062;-75
2022/08/24 03:09:34;;;;;;;33.83;31.05;;;;;;;19.48;84.97;101646.19;5005972;28;20037;-75
2022/08/24 03:12:00;;;;;;;36.03;32.92;;;;;;;19.56;84.79;101656.75;5009292;28;20104;-74
2022/08/24 03:14:25;;;;;;;37.22;34.17;;;;;;;19.55;84.83;101645.38;4990350;28;20072;-74
2022/08/24 03:16:50;;;;;;;37.50;34.42;;;;;;;19.58;84.44;101658.25;4999766;28;20034;-74
2022/08/24 03:19:16;;;;;;;36.33;33.30;;;;;;;19.56;85.00;101657.56;5004276;28;20021;-74
2022/08/24 03:21:41;;;;;;;33.17;30.65;;;;;;;19.53;84.79;101644.72;5009379;28;20049;-74
2022/08/24 03:24:07;;;;;;;33.63;30.90;;;;;;;19.52;84.67;101656.22;4999389;28;20048;-75
2022/08/24 03:26:33;;;;;;;31.27;28.77;;;;;;;19.55;84.12;101649.81;5007105;28;20030;-74
2022/08/24 03:28:59;;;;;;;34.33;31.65;;;;;;;19.44;84.24;101645.72;5008840;28;20254;-74
2022/08/24 03:31:24;;;;;;;36.10;33.33;;;;;;;19.46;84.69;101656.88;5012313;28;20060;-74
2022/08/24 03:33:49;;;;;;;35.70;32.80;;;;;;;19.41;84.71;101653.91;5000170;28;20038;-75
2022/08/24 03:36:15;;;;;;;34.75;32.03;;;;;;;19.29;85.36;101657.84;5008129;28;20081;-74
2022/08/24 03:38:42;;;;;;;34.97;32.10;;;;;;;19.19;85.71;101654.53;5009886;28;20021;-75
2022/08/24 03:41:08;;;;;;;34.50;31.80;;;;;;;19.26;85.55;101650.28;4996060;28;20100;-75
2022/08/24 03:43:47;;;;;;;35.53;32.83;;;;;;;19.18;86.72;101652.91;4999494;28;20114;-74
2022/08/24 03:46:16;;;;;;;35.00;32.28;;;;;;;19.00;86.25;101661.72;5007810;28;20037;-74
2022/08/24 03:48:43;;;;;;;39.28;36.15;;;;;;;19.03;86.82;101652.69;4992044;28;20406;-74
2022/08/24 03:51:18;;;;;;;38.42;35.33;;;;;;;18.90;87.13;101661.03;5004466;28;20022;-74
2022/08/24 03:53:44;;;;;;;37.38;34.38;;;;;;;18.91;85.99;101657.41;4992337;28;20030;-74
2022/08/24 03:56:10;;;;;;;38.17;35.20;;;;;;;18.96;86.16;101663.03;4999363;28;20430;-75
2022/08/24 03:58:37;;;;;;;37.50;34.65;;;;;;;18.87;86.42;101669.25;4991391;28;20034;-74
2022/08/24 04:01:04;;;;;;;38.90;35.75;;;;;;;18.86;86.68;101664.13;5006170;28;20129;-74
2022/08/24 04:03:30;;;;;;;38.65;35.72;;;;;;;18.91;86.46;101665.28;5008358;28;20057;-75
2022/08/24 04:05:55;;;;;;;41.42;37.97;;;;;;;18.67;87.27;101659.94;5007901;28;20168;-74
2022/08/24 04:08:21;;;;;;;41.67;38.47;;;;;;;18.81;87.20;101659.38;4987355;28;20382;-75
2022/08/24 04:10:47;;;;;;;44.22;40.72;;;;;;;18.72;87.47;101652.44;4993158;28;20514;-75
2022/08/24 04:13:12;;;;;;;44.83;41.33;;;;;;;18.81;87.89;101646.22;5003884;28;20423;-74
2022/08/24 04:15:40;;;;;;;45.53;42.00;;;;;;;18.88;87.26;101660.38;4999723;28;20052;-74
2022/08/24 04:18:06;;;;;;;44.25;40.85;;;;;;;18.95;87.11;101664.00;5004725;28;20498;-75
2022/08/24 04:20:37;;;;;;;42.47;39.13;;;;;;;18.94;87.05;101662.38;4999469;28;20034;-74
2022/08/24 04:23:03;;;;;;;43.30;39.80;;;;;;;18.93;87.50;101655.47;5006417;28;20064;-74
2022/08/24 04:25:28;;;;;;;44.42;41.00;;;;;;;18.87;87.59;101656.09;5008651;28;20121;-74
2022/08/24 04:27:54;;;;;;;44.08;40.65;;;;;;;18.89;87.60;101662.00;4994457;28;20035;-74
2022/08/24 04:30:19;;;;;;;45.83;42.22;;;;;;;18.76;88.40;101666.91;5008132;28;20017;-74
2022/08/24 04:32:44;;;;;;;45.70;42.10;;;;;;;18.84;88.20;101683.50;5007159;28;20060;-74
2022/08/24 04:35:10;;;;;;;45.58;41.95;;;;;;;18.83;88.48;101670.53;4991486;28;20451;-74
2022/08/24 04:37:35;;;;;;;43.55;40.28;;;;;;;18.80;88.76;101673.47;4996333;28;20108;-75
2022/08/24 04:40:01;;;;;;;45.00;41.33;;;;;;;18.80;88.47;101668.22;5004255;28;20022;-74
2022/08/24 04:42:27;;;;;;;43.50;40.05;;;;;;;18.79;87.87;101664.75;4992137;28;20450;-74
2022/08/24 04:44:53;;;;;;;42.35;39.05;;;;;;;18.61;88.42;101676.31;5002579;28;20025;-74
2022/08/24 04:47:19;;;;;;;41.60;38.17;;;;;;;18.66;87.99;101674.06;4999199;28;20497;-74
2022/08/24 04:49:44;;;;;;;41.75;38.55;;;;;;;18.63;88.54;101672.53;5005056;28;20478;-75
2022/08/24 04:52:10;;;;;;;39.47;36.50;;;;;;;18.65;88.18;101667.16;4992637;28;20022;-74
2022/08/24 04:54:35;;;;;;;39.60;36.47;;;;;;;18.60;88.35;101664.16;5007706;28;20109;-74
2022/08/24 04:57:01;;;;;;;38.53;35.45;;;;;;;18.71;88.16;101671.81;5008236;28;20041;-74
2022/08/24 04:59:26;;;;;;;37.97;34.88;;;;;;;18.64;88.65;101683.88;5006286;28;20034;-74
2022/08/24 05:01:52;;;;;;;37.22;34.40;;;;;;;18.63;88.94;101680.44;4991987;28;20061;-74
2022/08/24 05:04:17;;;;;;;36.25;33.47;;;;;;;18.68;89.24;101678.19;5004469;28;20026;-74
2022/08/24 05:06:43;;;;;;;36.28;33.50;;;;;;;18.62;88.92;101677.97;5006597;28;20378;-74
2022/08/24 05:09:08;;;;;;;36.58;33.60;;;;;;;18.53;89.40;101670.06;4999543;28;20033;-75
2022/08/24 05:11:36;;;;;;;36.63;33.83;;;;;;;18.68;89.02;101687.88;4993637;28;20485;-74
2022/08/24 05:14:02;;;;;;;34.80;32.05;;;;;;;18.58;89.51;101683.53;5004302;28;20022;-75
2022/08/24 05:16:27;;;;;;;34.03;31.02;;;;;;;18.67;88.61;101688.81;5006736;28;20040;-74
2022/08/24 05:18:55;;;;;;;33.60;31.05;;;;;;;18.68;88.95;101687.88;4999267;28;20459;-74
2022/08/24 05:21:23;;;;;;;33.33;30.83;;;;;;;18.68;89.14;101685.25;4998800;28;20053;-74
2022/08/24 05:23:49;;;;;;;33.67;31.17;;;;;;;18.71;89.10;101692.81;4997203;28;20076;-75
2022/08/24 05:26:18;;;;;;;32.65;30.25;;;;;;;18.71;89.14;101695.47;5003461;28;20430;-75
2022/08/24 05:28:45;;;;;;;33.03;30.33;;;;;;;18.66;88.98;101684.56;4984220;28;20056;-74
2022/08/24 05:31:20;;;;;;;31.98;29.48;;;;;;;18.63;89.27;101690.13;5006454;28;20028;-76
2022/08/24 05:33:47;;;;;;;33.67;31.08;;;;;;;18.68;89.58;101699.22;5006517;28;20052;-75
2022/08/24 05:36:19;;;;;;;33.95;31.35;;;;;;;18.84;89.25;101698.47;5006774;28;20022;-74
2022/08/24 05:38:46;;;;;;;35.05;32.22;;;;;;;18.94;88.80;101707.06;5006745;28;20075;-74
2022/08/24 05:41:12;;;;;;;37.67;34.67;;;;;;;19.00;89.68;101698.53;5006637;28;20390;-74
2022/08/24 05:43:38;;;;;;;38.35;35.33;;;;;;;19.06;89.63;101697.91;5007645;28;20025;-74
2022/08/24 05:46:04;;;;;;;34.95;32.15;;;;;;;19.13;89.54;101702.50;4992653;28;20458;-74
2022/08/24 05:48:29;;;;;;;34.47;31.88;;;;;;;19.13;89.81;101697.25;4996673;28;20505;-74
2022/08/24 05:50:57;;;;;;;38.42;35.42;;;;;;;19.17;90.26;101709.94;5007048;28;20477;-74
2022/08/24 05:53:22;;;;;;;39.28;36.20;;;;;;;19.21;89.86;101700.75;5006969;28;20033;-74
2022/08/24 05:55:49;;;;;;;40.92;37.60;;;;;;;19.32;89.45;101707.50;4988202;28;20377;-74
2022/08/24 05:58:14;;;;;;;38.75;35.50;;;;;;;19.33;89.16;101704.72;4998346;28;20022;-74
2022/08/24 06:00:40;;;;;;;36.90;33.90;;;;;;;19.30;89.82;101706.84;5000959;28;20052;-74
2022/08/24 06:03:05;;;;;;;43.40;40.22;;;;;;;19.32;89.69;101707.50;5005803;28;20049;-75
2022/08/24 06:05:31;;;;;;;47.72;44.00;;;;;;;19.29;90.21;101713.09;5007273;28;20037;-75
2022/08/24 06:07:57;;;;;;;46.85;43.25;;;;;;;19.40;89.77;101707.53;4999954;28;20537;-75
2022/08/24 06:10:23;;;;;;;43.33;40.13;;;;;;;19.46;89.34;101708.69;4998963;28;20031;-74
2022/08/24 06:12:48;;;;;;;51.88;48.00;;;;;;;19.46;89.62;101717.41;5001748;28;20026;-74
2022/08/24 06:15:14;;;;;;;60.40;55.78;;;;;;;19.46;89.70;101709.50;4984932;28;20058;-75
2022/08/24 06:17:39;;;;;;;60.72;56.20;;;;;;;19.54;90.06;101727.94;4988472;28;20061;-75
2022/08/24 06:20:06;;;;;;;61.63;57.08;;;;;;;19.58;89.94;101723.19;5016745;23;20386;-75
2022/08/24 06:22:32;;;;;;;62.50;57.70;;;;;;;19.58;90.29;101734.56;5004055;28;20026;-75
2022/08/24 06:27:46;;;;;;;64.88;59.97;;;;;;;19.63;89.65;101727.00;4964823;28;20133;-74
2022/08/24 06:30:12;;;;;;;65.05;60.13;;;;;;;19.72;89.91;101727.81;4960961;28;20105;-74
2022/08/24 06:32:38;;;;;;;62.30;57.60;;;;;;;19.80;89.15;101725.22;4969201;28;20495;-75
2022/08/24 06:35:06;;;;;;;66.45;61.50;;;;;;;19.75;89.65;101724.88;4965685;28;20114;-75
2022/08/24 06:37:31;;;;;;;63.90;59.20;;;;;;;19.89;89.49;101733.91;4973011;28;20166;-74
2022/08/24 06:39:58;;;;;;;63.95;59.05;;;;;;;19.94;89.67;101734.25;4952691;28;21134;-75
2022/08/24 06:42:23;;;;;;;63.17;58.28;;;;;;;20.05;89.06;101741.81;4964424;28;20643;-75
2022/08/24 06:44:50;;;;;;;61.85;57.15;;;;;;;20.09;88.96;101743.16;4962317;28;20463;-75
2022/08/24 06:47:15;;;;;;;62.65;57.83;;;;;;;20.25;88.63;101744.13;4962801;28;20057;-75
2022/08/24 06:49:41;;;;;;;68.25;62.95;;;;;;;20.22;88.56;101747.09;4965116;28;20030;-75
2022/08/24 06:52:07;;;;;;;70.45;65.28;;;;;;;20.26;88.55;101748.41;4968913;28;20031;-75
2022/08/24 06:54:32;;;;;;;58.95;54.28;;;;;;;20.38;87.55;101747.06;4952320;28;20161;-74
2022/08/24 06:56:58;;;;;;;49.33;45.25;;;;;;;20.41;86.90;101752.00;4966289;28;20117;-74
2022/08/24 06:59:27;;;;;;;48.78;44.72;;;;;;;20.50;86.95;101753.66;4982185;28;20108;-74
2022/08/24 07:01:54;;;;;;;47.05;43.20;;;;;;;20.58;86.57;101753.66;4969824;28;20192;-74
2022/08/24 07:04:23;;;;;;;42.70;39.17;;;;;;;20.76;86.57;101749.97;4971038;28;20087;-74
2022/08/24 07:06:49;;;;;;;39.70;36.50;;;;;;;20.85;85.22;101748.97;4993217;28;20052;-75
2022/08/24 07:09:15;;;;;;;39.03;35.85;;;;;;;20.96;84.72;101751.25;4987927;28;20029;-75
2022/08/24 07:11:41;;;;;;;37.28;34.17;;;;;;;21.07;84.01;101752.69;4995703;28;20389;-75
2022/08/24 07:14:06;;;;;;;37.83;34.92;;;;;;;21.17;83.96;101754.13;4988530;28;20036;-75
2022/08/24 07:16:33;;;;;;;38.53;34.95;;;;;;;21.27;83.41;101753.06;4997376;28;20391;-75
2022/08/24 07:18:59;;;;;;;36.65;33.58;;;;;;;21.38;82.11;101744.78;4982354;28;20390;-75
2022/08/24 07:21:25;;;;;;;35.00;31.95;;;;;;;21.55;81.23;101756.91;5002580;28;20045;-75
2022/08/24 07:23:54;;;;;;;31.08;28.38;;;;;;;21.66;79.54;101764.41;4995076;28;20423;-76
2022/08/24 07:26:21;;;;;;;28.73;26.23;;;;;;;21.83;77.92;101764.31;4986156;28;20076;-75
2022/08/24 07:28:49;;;;;;;28.90;26.33;;;;;;;21.89;77.15;101755.69;4988148;28;20486;-75
2022/08/24 07:31:14;;;;;;;28.92;26.27;;;;;;;21.97;76.60;101760.91;4985314;28;20080;-75
2022/08/24 07:33:40;;;;;;;31.38;28.58;;;;;;;22.04;77.05;101761.84;4995476;28;20544;-75
2022/08/24 07:36:06;;;;;;;32.13;29.63;;;;;;;22.12;76.93;101753.88;4996421;28;20030;-75
2022/08/24 07:38:32;;;;;;;31.63;28.98;;;;;;;22.25;76.59;101759.38;4989344;28;20482;-76
2022/08/24 07:40:59;;;;;;;32.80;29.80;;;;;;;22.33;76.42;101765.59;4990964;28;20351;-75
2022/08/24 07:43:24;;;;;;;31.98;29.10;;;;;;;22.49;76.64;101760.16;4988707;28;20367;-75
2022/08/24 07:45:50;;;;;;;31.58;28.90;;;;;;;22.52;76.05;101757.13;4991275;28;20034;-75
2022/08/24 07:48:16;;;;;;;33.08;30.38;;;;;;;22.68;74.69;101754.31;4995528;28;20026;-75
2022/08/24 07:50:41;;;;;;;34.55;31.45;;;;;;;22.75;73.72;101749.13;4991615;28;20034;-75
2022/08/24 07:53:07;;;;;;;33.80;30.90;;;;;;;22.89;73.57;101758.09;4990873;28;20033;-75
2022/08/24 07:55:33;;;;;;;34.65;31.55;;;;;;;22.95;73.44;101752.06;4973320;28;20504;-75
2022/08/24 07:57:58;;;;;;;31.33;28.63;;;;;;;23.15;71.90;101765.53;4988900;28;20049;-75
2022/08/24 08:00:24;;;;;;;31.90;29.10;;;;;;;23.22;70.74;101758.47;4989236;28;20117;-75
2022/08/24 08:02:50;;;;;;;29.38;27.08;;;;;;;23.30;69.91;101759.22;4993302;28;20541;-75
2022/08/24 08:05:18;;;;;;;32.08;29.23;;;;;;;23.32;70.10;101766.97;4998339;28;20018;-75
2022/08/24 08:07:43;;;;;;;28.50;25.85;;;;;;;23.38;69.78;101754.81;4998275;28;20065;-75
2022/08/24 08:10:11;;;;;;;31.10;28.50;;;;;;;23.49;69.52;101764.91;4999324;28;20121;-75
2022/08/24 08:12:37;;;;;;;28.63;26.02;;;;;;;23.58;68.74;101761.16;5004738;28;20029;-75
2022/08/24 08:15:04;;;;;;;26.42;24.13;;;;;;;23.63;68.54;101757.94;5005451;28;20102;-75
2022/08/24 08:17:29;;;;;;;25.30;23.08;;;;;;;23.67;69.24;101760.03;5008734;28;20454;-75
2022/08/24 08:19:54;;;;;;;21.33;19.42;;;;;;;23.77;67.16;101765.84;5004070;28;20093;-75
2022/08/24 08:25:06;;;;;;;26.15;23.77;;;;;;;23.96;67.89;101774.16;5002661;28;20777;-76
2022/08/24 08:27:33;;;;;;;18.42;16.58;;;;;;;24.22;66.03;101774.38;5002681;28;20038;-75
2022/08/24 08:29:58;;;;;;;17.33;15.73;;;;;;;24.12;65.27;101779.19;4997221;28;20065;-75
2022/08/24 08:32:24;;;;;;;29.40;26.90;;;;;;;24.16;66.52;101785.75;4995795;28;20466;-75
2022/08/24 08:34:49;;;;;;;28.38;25.98;;;;;;;24.19;66.39;101784.53;4997195;28;20132;-75
2022/08/24 08:37:15;;;;;;;16.90;15.23;;;;;;;24.43;64.29;101780.69;4996053;28;20105;-75
2022/08/24 08:39:41;;;;;;;27.13;24.83;;;;;;;24.33;65.25;101781.81;4990317;28;20466;-77
2022/08/24 08:42:29;;;;;;;26.48;24.23;;;;;;;24.49;66.58;101775.44;5000774;28;20101;-75
2022/08/24 08:44:57;;;;;;;25.33;23.02;;;;;;;24.57;65.91;101779.78;4946683;28;20047;-75
2022/08/24 08:47:47;;;;;;;26.88;24.48;;;;;;;24.67;65.85;101777.59;4931313;28;20125;-75
2022/08/24 08:50:20;;;;;;;25.20;23.00;;;;;;;24.78;65.77;101781.53;4946233;28;20047;-75
2022/08/24 08:53:13;;;;;;;23.83;21.60;;;;;;;24.79;65.43;101775.22;4947250;28;20075;-75
2022/08/24 08:55:47;;;;;;;22.38;20.02;;;;;;;24.75;63.61;101785.38;4952722;28;20404;-75
2022/08/24 08:58:43;;;;;;;20.77;18.75;;;;;;;24.98;65.53;101784.28;4941452;28;20055;-76
2022/08/24 09:01:23;;;;;;;20.35;18.45;;;;;;;25.06;64.56;101777.00;4955205;28;20494;-75
2022/08/24 09:04:07;;;;;;;24.50;22.20;;;;;;;25.02;64.23;101780.22;4944049;28;20031;-75
2022/08/24 09:06:53;;;;;;;21.80;19.75;;;;;;;25.18;63.59;101785.22;4947308;28;20510;-75
2022/08/24 09:09:37;;;;;;;22.42;20.38;;;;;;;25.17;63.70;101794.19;4940702;28;20162;-75
2022/08/24 09:12:10;;;;;;;19.27;17.58;;;;;;;25.40;64.25;101784.09;4945063;28;20069;-76
2022/08/24 09:15:05;;;;;;;19.95;17.88;;;;;;;25.38;62.10;101791.41;4944446;28;20039;-76
2022/08/24 09:18:03;;;;;;;18.60;16.80;;;;;;;25.58;63.21;101790.66;4947141;28;20043;-75
2022/08/24 09:20:40;;;;;;;16.08;13.40;;;;;;;25.62;61.29;101791.88;4927236;29;20587;-75
2022/08/24 09:23:21;;;;;;;13.32;12.02;;;;;;;25.78;61.36;101786.22;4958280;28;20043;-74
2022/08/24 09:26:05;;;;;;;13.52;11.13;;;;;;;25.91;63.39;101791.53;4950583;28;20050;-74
2022/08/24 09:28:37;;;;;;;13.00;11.63;;;;;;;25.99;60.80;101793.22;4961028;28;20042;-75
2022/08/24 09:31:20;;;;;;;12.32;11.02;;;;;;;25.99;59.20;101787.06;4962060;28;20480;-75
2022/08/24 09:34:12;;;;;;;13.82;10.30;;;;;;;26.09;59.22;101787.47;4965495;28;20255;-75
2022/08/24 09:36:57;;;;;;;12.13;10.85;;;;;;;26.19;59.86;101787.88;4962534;28;20062;-75
2022/08/24 09:39:50;;;;;;;12.95;11.18;;;;;;;26.14;58.68;101793.00;4957849;28;20054;-75
2022/08/24 09:42:34;;;;;;;13.48;11.38;;;;;;;26.16;55.97;101783.00;4946702;28;20035;-75
2022/08/24 09:45:44;;;;;;;12.18;10.40;;;;;;;26.21;58.82;101784.00;4962647;28;20081;-75
2022/08/24 09:48:22;;;;;;;9.68;7.57;;;;;;;26.45;59.14;101782.56;4908237;29;20040;-75
2022/08/24 09:51:03;;;;;;;12.18;9.30;;;;;;;26.51;58.24;101790.75;4907415;29;20124;-75
2022/08/24 09:54:16;;;;;;;16.40;7.93;;;;;;;26.66;58.23;101788.66;4907916;29;20048;-75
2022/08/24 09:57:03;;;;;;;11.65;9.48;;;;;;;26.69;56.06;101788.25;4908958;29;20035;-75
2022/08/24 09:59:52;;;;;;;10.00;8.82;;;;;;;26.80;57.38;101794.78;4928751;28;20044;-75
2022/08/24 10:02:34;;;;;;;9.70;8.00;;;;;;;26.87;55.54;101796.41;4936527;28;20118;-76
2022/08/24 10:05:08;;;;;;;11.20;7.32;;;;;;;26.86;55.38;101786.78;4933174;28;20043;-75
2022/08/24 10:07:52;;;;;;;8.45;6.55;;;;;;;26.93;54.43;101784.91;4936718;28;20430;-75
2022/08/24 10:10:46;;;;;;;9.82;5.10;;;;;;;27.23;56.75;101784.41;4932144;28;20043;-75
2022/08/24 10:13:17;;;;;;;8.00;5.22;;;;;;;27.41;55.55;101781.88;4886912;29;20033;-75
2022/08/24 10:16:19;;;;;;;10.65;6.78;;;;;;;27.43;55.07;101776.31;4883580;29;20044;-75
2022/08/24 10:19:07;;;;;;;7.90;5.43;;;;;;;27.35;52.00;101776.56;4888162;29;20036;-75
2022/08/24 10:21:44;;;;;;;8.50;4.80;;;;;;;27.45;52.49;101771.59;4882781;29;20048;-76
2022/08/24 10:24:17;;;;;;;8.18;5.47;;;;;;;27.36;52.80;101771.03;4899377;29;20548;-76
2022/08/24 10:27:05;;;;;;;7.75;4.90;;;;;;;27.46;54.12;101762.56;4944310;28;20046;-75
2022/08/24 10:29:47;;;;;;;6.72;4.32;;;;;;;27.52;53.10;101767.84;4942671;28;20198;-75
2022/08/24 10:32:39;;;;;;;8.65;4.80;;;;;;;27.60;52.06;101757.97;4942236;29;20035;-76
2022/08/24 10:35:05;;;;;;;8.82;5.18;;;;;;;27.52;50.73;101757.19;4943085;28;20039;-75
2022/08/24 10:37:36;;;;;;;7.20;3.90;;;;;;;27.39;51.45;101759.94;4939154;28;20392;-75
2022/08/24 10:40:38;;;;;;;6.78;3.80;;;;;;;27.41;52.45;101760.56;4945262;28;20042;-75
2022/08/24 10:43:36;;;;;;;5.95;3.58;;;;;;;27.40;52.61;101761.56;4942715;28;20055;-75
2022/08/24 10:46:17;;;;;;;7.10;3.90;;;;;;;27.35;51.97;101750.72;4944997;29;20732;-75
2022/08/24 10:49:10;;;;;;;7.85;3.80;;;;;;;27.63;52.72;101752.19;4944137;28;20038;-75
2022/08/24 10:51:41;;;;;;;6.20;3.50;;;;;;;27.81;52.44;101754.97;4999787;28;20048;-75
2022/08/24 10:54:11;;;;;;;5.88;3.65;;;;;;;27.81;51.00;101754.97;4987097;28;20044;-75
2022/08/24 10:57:00;;;;;;;6.82;4.00;;;;;;;27.93;51.87;101758.59;4988350;28;20470;-75
2022/08/24 10:59:43;;;;;;;6.63;3.30;;;;;;;28.19;51.84;101770.03;4960515;28;20050;-75
2022/08/24 11:02:27;;;;;;;5.70;3.45;;;;;;;28.34;52.09;101759.88;4964027;28;20046;-75
2022/08/24 11:04:58;;;;;;;8.93;4.65;;;;;;;28.27;48.64;101753.75;4955577;28;20502;-75
2022/08/24 11:07:24;;;;;;;6.38;3.60;;;;;;;28.47;49.38;101754.41;4964896;28;20026;-76
2022/08/24 11:09:56;;;;;;;6.03;3.67;;;;;;;28.47;48.62;101749.06;4961297;28;20140;-75
2022/08/24 11:12:32;;;;;;;6.43;3.60;;;;;;;28.63;48.73;101746.84;4953331;28;20031;-75
2022/08/24 11:15:02;;;;;;;6.43;4.47;;;;;;;28.35;47.08;101748.16;4962340;28;20099;-75
2022/08/24 11:17:30;;;;;;;5.85;3.88;;;;;;;28.45;47.11;101753.00;4962096;28;20569;-76
2022/08/24 11:19:58;;;;;;;6.70;3.40;;;;;;;28.55;49.22;101740.75;4957262;28;20411;-75
2022/08/24 11:22:46;;;;;;;;;;;;;;;28.75;49.84;101750.41;4963887;28;20760;-75
2022/08/24 11:25:21;;;;;;;5.63;2.90;;;;;;;28.87;48.62;101742.47;4963586;28;19953;-75
2022/08/24 11:27:55;;;;;;;4.82;3.05;;;;;;;29.00;49.02;101743.13;4959687;28;20768;-75
2022/08/24 11:30:26;;;;;;;5.22;3.20;;;;;;;28.96;48.04;101736.63;4957957;28;20074;-75
2022/08/24 11:32:55;;;;;;;5.45;3.40;;;;;;;29.02;47.72;101735.72;4966413;28;20081;-76
2022/08/24 11:35:34;;;;;;;6.20;3.20;;;;;;;28.95;46.37;101740.31;4966705;28;20038;-75